sensor_id;sensor_type;location;lat;lon;timestamp;pressure;altitude;pressure_sealevel;temperature;humidity
46291;BME280;32023;44.444;26.006;2023-03-20T00:02:35;100776.28;;;7.75;65.86
46291;BME280;32023;44.444;26.006;2023-03-20T00:14:31;100757.75;;;7.59;66.80
46291;BME280;32023;44.444;26.006;2023-03-20T00:17:44;100756.66;;;7.60;67.28
46291;BME280;32023;44.444;26.006;2023-03-20T00:20:20;100748.69;;;7.58;67.72
46291;BME280;32023;44.444;26.006;2023-03-20T00:23:17;100750.59;;;7.58;68.40
46291;BME280;32023;44.444;26.006;2023-03-20T00:25:49;100743.81;;;7.60;68.31
46291;BME280;32023;44.444;26.006;2023-03-20T00:34:33;100743.72;;;7.67;68.55
46291;BME280;32023;44.444;26.006;2023-03-20T00:40:11;100726.34;;;7.73;68.02
46291;BME280;32023;44.444;26.006;2023-03-20T00:42:59;100733.53;;;7.74;68.18
46291;BME280;32023;44.444;26.006;2023-03-20T00:45:33;100732.22;;;7.77;68.17
46291;BME280;32023;44.444;26.006;2023-03-20T00:48:01;100736.16;;;7.81;68.00
46291;BME280;32023;44.444;26.006;2023-03-20T00:50:33;100726.88;;;7.82;67.95
46291;BME280;32023;44.444;26.006;2023-03-20T00:59:11;100722.31;;;7.75;67.87
46291;BME280;32023;44.444;26.006;2023-03-20T01:02:01;100721.72;;;7.73;68.03
46291;BME280;32023;44.444;26.006;2023-03-20T01:04:39;100722.16;;;7.70;68.40
46291;BME280;32023;44.444;26.006;2023-03-20T01:07:20;100712.88;;;7.71;68.09
46291;BME280;32023;44.444;26.006;2023-03-20T01:09:52;100714.56;;;7.72;67.75
46291;BME280;32023;44.444;26.006;2023-03-20T01:12:21;100710.97;;;7.72;67.77
46291;BME280;32023;44.444;26.006;2023-03-20T01:17:52;100700.22;;;7.70;67.74
46291;BME280;32023;44.444;26.006;2023-03-20T01:20:32;100700.00;;;7.72;67.50
46291;BME280;32023;44.444;26.006;2023-03-20T01:23:04;100700.47;;;7.69;67.68
46291;BME280;32023;44.444;26.006;2023-03-20T01:28:35;100695.69;;;7.64;67.58
46291;BME280;32023;44.444;26.006;2023-03-20T01:31:33;100697.84;;;7.62;67.60
46291;BME280;32023;44.444;26.006;2023-03-20T01:36:58;100689.78;;;7.49;67.96
46291;BME280;32023;44.444;26.006;2023-03-20T01:39:31;100686.69;;;7.46;68.06
46291;BME280;32023;44.444;26.006;2023-03-20T01:42:06;100689.25;;;7.41;68.34
46291;BME280;32023;44.444;26.006;2023-03-20T01:44:33;100686.78;;;7.39;68.09
46291;BME280;32023;44.444;26.006;2023-03-20T01:47:02;100684.50;;;7.36;68.02
46291;BME280;32023;44.444;26.006;2023-03-20T01:52:19;100680.53;;;7.32;68.39
46291;BME280;32023;44.444;26.006;2023-03-20T01:54:54;100685.19;;;7.32;68.69
46291;BME280;32023;44.444;26.006;2023-03-20T01:57:23;100688.16;;;7.30;68.37
46291;BME280;32023;44.444;26.006;2023-03-20T01:59:56;100684.34;;;7.31;68.73
46291;BME280;32023;44.444;26.006;2023-03-20T02:02:28;100683.28;;;7.32;68.68
46291;BME280;32023;44.444;26.006;2023-03-20T02:04:57;100680.75;;;7.31;68.76
46291;BME280;32023;44.444;26.006;2023-03-20T02:07:37;100682.91;;;7.29;68.55
46291;BME280;32023;44.444;26.006;2023-03-20T02:10:11;100690.97;;;7.23;68.68
46291;BME280;32023;44.444;26.006;2023-03-20T02:12:40;100688.31;;;7.17;68.88
46291;BME280;32023;44.444;26.006;2023-03-20T02:15:13;100682.69;;;7.12;68.46
46291;BME280;32023;44.444;26.006;2023-03-20T02:17:47;100674.56;;;7.05;68.54
46291;BME280;32023;44.444;26.006;2023-03-20T02:36:19;100684.41;;;6.52;69.38
46291;BME280;32023;44.444;26.006;2023-03-20T02:52:18;100682.41;;;6.16;70.57
46291;BME280;32023;44.444;26.006;2023-03-20T02:57:54;100678.97;;;6.02;71.25
46291;BME280;32023;44.444;26.006;2023-03-20T03:00:37;100692.44;;;5.97;71.49
46291;BME280;32023;44.444;26.006;2023-03-20T03:08:11;100684.34;;;5.84;71.43
46291;BME280;32023;44.444;26.006;2023-03-20T03:11:44;100676.78;;;5.79;71.70
46291;BME280;32023;44.444;26.006;2023-03-20T03:13:55;100685.03;;;5.73;71.96
46291;BME280;32023;44.444;26.006;2023-03-20T03:16:32;100682.50;;;5.71;71.68
46291;BME280;32023;44.444;26.006;2023-03-20T03:22:04;100677.94;;;5.65;72.27
46291;BME280;32023;44.444;26.006;2023-03-20T03:27:44;100673.34;;;5.59;72.83
46291;BME280;32023;44.444;26.006;2023-03-20T03:30:25;100681.53;;;5.59;72.81
46291;BME280;32023;44.444;26.006;2023-03-20T03:33:28;100689.97;;;5.58;72.43
46291;BME280;32023;44.444;26.006;2023-03-20T03:41:42;100691.50;;;5.47;72.75
46291;BME280;32023;44.444;26.006;2023-03-20T03:47:03;100686.50;;;5.38;72.73
46291;BME280;32023;44.444;26.006;2023-03-20T03:49:35;100685.25;;;5.33;72.92
46291;BME280;32023;44.444;26.006;2023-03-20T03:52:04;100678.56;;;5.29;73.10
46291;BME280;32023;44.444;26.006;2023-03-20T03:54:37;100683.63;;;5.26;72.76
46291;BME280;32023;44.444;26.006;2023-03-20T03:57:05;100682.81;;;5.19;73.41
46291;BME280;32023;44.444;26.006;2023-03-20T03:59:34;100680.72;;;5.14;73.34
46291;BME280;32023;44.444;26.006;2023-03-20T04:02:01;100551.63;;;4.25;73.05
46291;BME280;32023;44.444;26.006;2023-03-20T04:04:29;100678.66;;;5.10;73.33
46291;BME280;32023;44.444;26.006;2023-03-20T04:06:57;100671.97;;;5.06;73.65
46291;BME280;32023;44.444;26.006;2023-03-20T04:09:24;100678.69;;;5.03;73.63
46291;BME280;32023;44.444;26.006;2023-03-20T04:11:56;100676.19;;;5.02;74.13
46291;BME280;32023;44.444;26.006;2023-03-20T04:14:23;100679.97;;;5.01;73.63
46291;BME280;32023;44.444;26.006;2023-03-20T04:16:53;100682.69;;;5.01;74.01
46291;BME280;32023;44.444;26.006;2023-03-20T04:19:21;100685.63;;;4.99;73.66
46291;BME280;32023;44.444;26.006;2023-03-20T04:21:48;100690.03;;;5.00;73.49
46291;BME280;32023;44.444;26.006;2023-03-20T04:24:14;100687.50;;;4.99;74.16
46291;BME280;32023;44.444;26.006;2023-03-20T04:26:40;100684.78;;;4.99;73.62
46291;BME280;32023;44.444;26.006;2023-03-20T04:29:14;100683.72;;;5.00;74.12
46291;BME280;32023;44.444;26.006;2023-03-20T04:31:41;100689.19;;;5.00;74.12
46291;BME280;32023;44.444;26.006;2023-03-20T04:34:07;100685.63;;;4.99;74.02
46291;BME280;32023;44.444;26.006;2023-03-20T04:36:41;100694.66;;;5.00;73.83
46291;BME280;32023;44.444;26.006;2023-03-20T04:39:10;100702.00;;;4.99;73.86
46291;BME280;32023;44.444;26.006;2023-03-20T04:41:40;100708.28;;;5.00;73.36
46291;BME280;32023;44.444;26.006;2023-03-20T04:44:06;100709.97;;;5.01;73.44
46291;BME280;32023;44.444;26.006;2023-03-20T04:46:40;100704.31;;;5.02;73.45
46291;BME280;32023;44.444;26.006;2023-03-20T04:49:06;100711.00;;;5.06;73.68
46291;BME280;32023;44.444;26.006;2023-03-20T04:51:35;100708.47;;;5.11;73.47
46291;BME280;32023;44.444;26.006;2023-03-20T04:54:04;100704.03;;;5.17;73.34
46291;BME280;32023;44.444;26.006;2023-03-20T04:56:30;100702.72;;;5.26;73.16
46291;BME280;32023;44.444;26.006;2023-03-20T04:58:57;100714.44;;;5.33;73.15
46291;BME280;32023;44.444;26.006;2023-03-20T05:01:28;100713.78;;;5.44;73.23
46291;BME280;32023;44.444;26.006;2023-03-20T05:12:46;100704.66;;;5.95;71.38
46291;BME280;32023;44.444;26.006;2023-03-20T05:15:14;100704.81;;;6.06;71.23
46291;BME280;32023;44.444;26.006;2023-03-20T05:17:52;100703.88;;;6.19;71.08
46291;BME280;32023;44.444;26.006;2023-03-20T05:20:19;100710.66;;;6.35;70.38
46291;BME280;32023;44.444;26.006;2023-03-20T05:22:47;100711.00;;;6.45;70.19
46291;BME280;32023;44.444;26.006;2023-03-20T05:25:13;100714.28;;;6.53;69.95
46291;BME280;32023;44.444;26.006;2023-03-20T05:27:40;100707.84;;;6.66;69.56
46291;BME280;32023;44.444;26.006;2023-03-20T05:30:06;100711.13;;;6.74;69.24
46291;BME280;32023;44.444;26.006;2023-03-20T05:32:33;100721.03;;;6.94;68.88
46291;BME280;32023;44.444;26.006;2023-03-20T05:35:01;100723.75;;;7.12;68.98
46291;BME280;32023;44.444;26.006;2023-03-20T05:43:10;100729.19;;;7.66;67.23
46291;BME280;32023;44.444;26.006;2023-03-20T05:45:52;100724.25;;;7.87;66.24
46291;BME280;32023;44.444;26.006;2023-03-20T05:48:18;100734.34;;;8.04;65.50
46291;BME280;32023;44.444;26.006;2023-03-20T05:50:44;100720.63;;;8.16;65.00
46291;BME280;32023;44.444;26.006;2023-03-20T05:53:19;100724.22;;;8.28;64.48
46291;BME280;32023;44.444;26.006;2023-03-20T05:55:46;100720.22;;;8.42;64.10
46291;BME280;32023;44.444;26.006;2023-03-20T05:58:15;100717.25;;;8.55;63.24
46291;BME280;32023;44.444;26.006;2023-03-20T06:00:44;100716.66;;;8.65;62.72
46291;BME280;32023;44.444;26.006;2023-03-20T06:03:16;100716.56;;;8.72;62.21
46291;BME280;32023;44.444;26.006;2023-03-20T06:05:43;100709.88;;;8.79;62.41
46291;BME280;32023;44.444;26.006;2023-03-20T06:08:09;100712.50;;;8.86;61.88
46291;BME280;32023;44.444;26.006;2023-03-20T06:10:38;100717.63;;;8.94;61.61
46291;BME280;32023;44.444;26.006;2023-03-20T06:21:29;100711.59;;;9.20;60.63
46291;BME280;32023;44.444;26.006;2023-03-20T06:23:57;100711.81;;;9.30;60.49
46291;BME280;32023;44.444;26.006;2023-03-20T06:32:00;100716.75;;;9.56;59.77
46291;BME280;32023;44.444;26.006;2023-03-20T06:37:28;100719.09;;;9.64;59.77
46291;BME280;32023;44.444;26.006;2023-03-20T06:39:58;100725.69;;;9.63;59.70
46291;BME280;32023;44.444;26.006;2023-03-20T06:42:27;100722.47;;;9.66;59.89
46291;BME280;32023;44.444;26.006;2023-03-20T06:44:56;100718.72;;;9.73;59.64
46291;BME280;32023;44.444;26.006;2023-03-20T06:47:22;100723.00;;;9.80;59.34
46291;BME280;32023;44.444;26.006;2023-03-20T06:49:48;100723.34;;;9.84;59.12
46291;BME280;32023;44.444;26.006;2023-03-20T06:52:16;100722.69;;;9.93;58.92
46291;BME280;32023;44.444;26.006;2023-03-20T06:54:45;100734.13;;;10.02;59.17
46291;BME280;32023;44.444;26.006;2023-03-20T06:57:15;100735.41;;;10.11;58.96
46291;BME280;32023;44.444;26.006;2023-03-20T07:02:45;100737.97;;;10.29;58.42
46291;BME280;32023;44.444;26.006;2023-03-20T07:08:44;100732.97;;;10.59;57.73
46291;BME280;32023;44.444;26.006;2023-03-20T07:11:10;100739.78;;;10.74;57.27
46291;BME280;32023;44.444;26.006;2023-03-20T07:13:59;100741.09;;;10.88;57.03
46291;BME280;32023;44.444;26.006;2023-03-20T07:16:30;100734.81;;;11.09;56.57
46291;BME280;32023;44.444;26.006;2023-03-20T07:21:51;100741.47;;;11.51;55.59
46291;BME280;32023;44.444;26.006;2023-03-20T07:24:27;100734.53;;;11.71;55.24
46291;BME280;32023;44.444;26.006;2023-03-20T07:27:06;100739.66;;;11.84;54.48
46291;BME280;32023;44.444;26.006;2023-03-20T07:29:35;100730.91;;;11.92;53.96
46291;BME280;32023;44.444;26.006;2023-03-20T07:35:17;100723.81;;;12.01;53.89
46291;BME280;32023;44.444;26.006;2023-03-20T07:37:51;100716.69;;;12.05;54.01
46291;BME280;32023;44.444;26.006;2023-03-20T07:43:54;100729.16;;;12.07;53.98
46291;BME280;32023;44.444;26.006;2023-03-20T07:46:26;100733.31;;;12.10;53.66
46291;BME280;32023;44.444;26.006;2023-03-20T07:49:26;100729.31;;;12.23;53.60
46291;BME280;32023;44.444;26.006;2023-03-20T08:00:46;100723.69;;;13.18;51.78
46291;BME280;32023;44.444;26.006;2023-03-20T08:03:23;100724.06;;;13.37;50.97
46291;BME280;32023;44.444;26.006;2023-03-20T08:05:52;100714.22;;;13.61;49.99
46291;BME280;32023;44.444;26.006;2023-03-20T08:11:45;100716.00;;;14.08;48.47
46291;BME280;32023;44.444;26.006;2023-03-20T08:14:33;100716.28;;;14.31;47.95
46291;BME280;32023;44.444;26.006;2023-03-20T08:16:58;100720.78;;;14.58;47.35
46291;BME280;32023;44.444;26.006;2023-03-20T08:19:24;100715.50;;;14.76;46.45
46291;BME280;32023;44.444;26.006;2023-03-20T08:21:53;100715.16;;;15.03;46.06
46291;BME280;32023;44.444;26.006;2023-03-20T08:27:34;100719.31;;;15.90;43.91
46291;BME280;32023;44.444;26.006;2023-03-20T08:30:17;100712.34;;;16.31;41.90
46291;BME280;32023;44.444;26.006;2023-03-20T08:38:33;100717.81;;;17.80;38.25
46291;BME280;32023;44.444;26.006;2023-03-20T08:41:05;100716.28;;;18.31;37.18
46291;BME280;32023;44.444;26.006;2023-03-20T09:04:02;100709.72;;;19.87;33.19
46291;BME280;32023;44.444;26.006;2023-03-20T09:06:28;100704.91;;;20.14;32.87
46291;BME280;32023;44.444;26.006;2023-03-20T09:11:54;100700.97;;;20.29;32.59
46291;BME280;32023;44.444;26.006;2023-03-20T09:15:00;100708.09;;;20.35;32.44
46291;BME280;32023;44.444;26.006;2023-03-20T09:29:18;100591.53;;;19.50;32.53
46291;BME280;32023;44.444;26.006;2023-03-20T09:57:13;100668.06;;;24.83;25.29
46291;BME280;32023;44.444;26.006;2023-03-20T09:59:45;100667.03;;;25.45;24.88
46291;BME280;32023;44.444;26.006;2023-03-20T10:21:38;100626.13;;;29.15;19.70
46291;BME280;32023;44.444;26.006;2023-03-20T10:33:31;100618.78;;;34.55;14.54
46291;BME280;32023;44.444;26.006;2023-03-20T10:36:48;100615.84;;;35.35;13.64
46291;BME280;32023;44.444;26.006;2023-03-20T10:42:19;100615.63;;;35.97;13.32
46291;BME280;32023;44.444;26.006;2023-03-20T10:44:57;100619.03;;;36.26;12.69
46291;BME280;32023;44.444;26.006;2023-03-20T10:47:53;100604.69;;;36.86;12.70
46291;BME280;32023;44.444;26.006;2023-03-20T10:50:34;100612.13;;;37.10;12.46
46291;BME280;32023;44.444;26.006;2023-03-20T11:02:15;100594.88;;;34.86;13.92
46291;BME280;32023;44.444;26.006;2023-03-20T11:04:47;100593.69;;;32.98;15.42
46291;BME280;32023;44.444;26.006;2023-03-20T11:09:50;100575.34;;;32.91;15.43
46291;BME280;32023;44.444;26.006;2023-03-20T11:12:38;100570.09;;;33.15;15.26
46291;BME280;32023;44.444;26.006;2023-03-20T11:18:09;100568.78;;;30.78;17.10
46291;BME280;32023;44.444;26.006;2023-03-20T11:20:49;100571.56;;;30.37;17.49
46291;BME280;32023;44.444;26.006;2023-03-20T11:23:40;100562.09;;;31.51;16.86
46291;BME280;32023;44.444;26.006;2023-03-20T11:26:37;100558.13;;;32.53;15.73
46291;BME280;32023;44.444;26.006;2023-03-20T11:29:26;100552.50;;;32.67;15.71
46291;BME280;32023;44.444;26.006;2023-03-20T11:31:54;100557.03;;;32.92;15.49
46291;BME280;32023;44.444;26.006;2023-03-20T11:34:32;100541.59;;;31.28;16.67
46291;BME280;32023;44.444;26.006;2023-03-20T11:37:28;100545.03;;;29.63;18.26
46291;BME280;32023;44.444;26.006;2023-03-20T11:48:59;100527.81;;;29.26;18.56
46291;BME280;32023;44.444;26.006;2023-03-20T11:51:52;100517.63;;;28.73;19.16
46291;BME280;32023;44.444;26.006;2023-03-20T11:54:26;100519.94;;;28.90;18.99
46291;BME280;32023;44.444;26.006;2023-03-20T11:57:09;100515.94;;;29.43;18.96
46291;BME280;32023;44.444;26.006;2023-03-20T12:27:12;100485.94;;;26.35;21.96
46291;BME280;32023;44.444;26.006;2023-03-20T12:35:37;100474.59;;;26.47;21.57
46291;BME280;32023;44.444;26.006;2023-03-20T13:29:30;100418.72;;;23.51;25.82
46291;BME280;32023;44.444;26.006;2023-03-20T13:49:18;100410.00;;;22.44;27.46
46291;BME280;32023;44.444;26.006;2023-03-20T17:39:10;100385.97;;;15.37;44.00
46291;BME280;32023;44.444;26.006;2023-03-20T17:42:21;100381.31;;;15.33;43.91
46291;BME280;32023;44.444;26.006;2023-03-20T17:44:59;100384.94;;;15.28;44.16
46291;BME280;32023;44.444;26.006;2023-03-20T17:47:33;100386.09;;;15.22;44.64
46291;BME280;32023;44.444;26.006;2023-03-20T17:50:02;100386.41;;;15.21;44.81
46291;BME280;32023;44.444;26.006;2023-03-20T17:55:29;100389.28;;;15.06;45.18
46291;BME280;32023;44.444;26.006;2023-03-20T17:58:05;100391.00;;;14.97;45.54
46291;BME280;32023;44.444;26.006;2023-03-20T18:00:50;100384.38;;;14.92;45.65
46291;BME280;32023;44.444;26.006;2023-03-20T18:03:47;100391.91;;;14.87;46.12
46291;BME280;32023;44.444;26.006;2023-03-20T18:09:20;100394.19;;;14.80;46.31
46291;BME280;32023;44.444;26.006;2023-03-20T18:21:35;100393.19;;;14.61;46.72
46291;BME280;32023;44.444;26.006;2023-03-20T18:24:03;100390.44;;;14.56;46.86
46291;BME280;32023;44.444;26.006;2023-03-20T18:29:40;100397.69;;;14.46;47.24
46291;BME280;32023;44.444;26.006;2023-03-20T18:32:30;100404.34;;;14.45;47.28
46291;BME280;32023;44.444;26.006;2023-03-20T18:34:59;100404.94;;;14.42;47.37
46291;BME280;32023;44.444;26.006;2023-03-20T18:46:17;100414.91;;;14.33;47.89
46291;BME280;32023;44.444;26.006;2023-03-20T18:49:05;100412.13;;;14.28;48.15
46291;BME280;32023;44.444;26.006;2023-03-20T18:51:58;100416.31;;;14.26;48.02
46291;BME280;32023;44.444;26.006;2023-03-20T18:54:47;100412.44;;;14.22;48.07
46291;BME280;32023;44.444;26.006;2023-03-20T19:00:24;100412.19;;;14.23;47.89
46291;BME280;32023;44.444;26.006;2023-03-20T19:02:59;100411.63;;;14.21;48.04
46291;BME280;32023;44.444;26.006;2023-03-20T19:05:31;100409.41;;;14.23;47.79
46291;BME280;32023;44.444;26.006;2023-03-20T19:08:09;100414.69;;;14.20;47.82
46291;BME280;32023;44.444;26.006;2023-03-20T19:10:46;100412.19;;;14.18;47.80
46291;BME280;32023;44.444;26.006;2023-03-20T19:13:44;100412.75;;;14.15;47.68
46291;BME280;32023;44.444;26.006;2023-03-20T19:16:24;100411.34;;;14.13;47.45
46291;BME280;32023;44.444;26.006;2023-03-20T19:18:58;100412.75;;;14.10;47.62
46291;BME280;32023;44.444;26.006;2023-03-20T19:26:48;100413.91;;;14.04;47.28
46291;BME280;32023;44.444;26.006;2023-03-20T19:29:27;100406.16;;;14.01;47.04
46291;BME280;32023;44.444;26.006;2023-03-20T19:32:07;100419.44;;;13.99;46.88
46291;BME280;32023;44.444;26.006;2023-03-20T19:34:33;100403.94;;;13.98;47.05
46291;BME280;32023;44.444;26.006;2023-03-20T19:37:00;100412.22;;;13.98;46.95
46291;BME280;32023;44.444;26.006;2023-03-20T19:39:36;100402.28;;;13.97;46.64
46291;BME280;32023;44.444;26.006;2023-03-20T19:42:13;100409.50;;;13.93;46.54
46291;BME280;32023;44.444;26.006;2023-03-20T19:44:48;100405.63;;;13.89;46.49
46291;BME280;32023;44.444;26.006;2023-03-20T19:47:15;100408.97;;;13.86;46.46
46291;BME280;32023;44.444;26.006;2023-03-20T19:49:46;100410.34;;;13.83;46.45
46291;BME280;32023;44.444;26.006;2023-03-20T19:52:22;100407.59;;;13.78;46.20
46291;BME280;32023;44.444;26.006;2023-03-20T19:54:55;100399.00;;;13.75;46.22
46291;BME280;32023;44.444;26.006;2023-03-20T19:57:24;100409.25;;;13.69;45.60
46291;BME280;32023;44.444;26.006;2023-03-20T19:59:53;100406.75;;;13.68;45.68
46291;BME280;32023;44.444;26.006;2023-03-20T20:02:23;100402.34;;;13.67;45.57
46291;BME280;32023;44.444;26.006;2023-03-20T20:04:52;100405.66;;;13.64;45.66
46291;BME280;32023;44.444;26.006;2023-03-20T20:07:19;100404.28;;;13.61;45.73
46291;BME280;32023;44.444;26.006;2023-03-20T20:09:50;100406.78;;;13.58;46.09
46291;BME280;32023;44.444;26.006;2023-03-20T20:12:28;100403.75;;;13.54;46.40
46291;BME280;32023;44.444;26.006;2023-03-20T20:15:02;100403.19;;;13.52;46.60
46291;BME280;32023;44.444;26.006;2023-03-20T20:17:43;100404.84;;;13.53;46.83
46291;BME280;32023;44.444;26.006;2023-03-20T20:20:10;100407.34;;;13.55;46.76
46291;BME280;32023;44.444;26.006;2023-03-20T20:22:40;100416.19;;;13.57;46.79
46291;BME280;32023;44.444;26.006;2023-03-20T20:25:07;100415.34;;;13.56;47.42
46291;BME280;32023;44.444;26.006;2023-03-20T20:27:36;100418.69;;;13.53;47.87
46291;BME280;32023;44.444;26.006;2023-03-20T20:30:04;100414.81;;;13.49;48.29
46291;BME280;32023;44.444;26.006;2023-03-20T20:32:42;100411.78;;;13.40;48.66
46291;BME280;32023;44.444;26.006;2023-03-20T20:35:14;100412.91;;;13.29;49.74
46291;BME280;32023;44.444;26.006;2023-03-20T20:37:43;100411.72;;;13.00;52.29
46291;BME280;32023;44.444;26.006;2023-03-20T20:40:18;100408.94;;;12.75;53.60
46291;BME280;32023;44.444;26.006;2023-03-20T20:42:45;100399.50;;;12.66;53.52
46291;BME280;32023;44.444;26.006;2023-03-20T20:45:12;100408.88;;;12.60;53.29
46291;BME280;32023;44.444;26.006;2023-03-20T20:47:42;100403.34;;;12.54;53.19
46291;BME280;32023;44.444;26.006;2023-03-20T20:50:20;100411.06;;;12.47;53.83
46291;BME280;32023;44.444;26.006;2023-03-20T20:52:47;100411.31;;;12.41;53.92
46291;BME280;32023;44.444;26.006;2023-03-20T20:55:14;100401.03;;;12.31;54.26
46291;BME280;32023;44.444;26.006;2023-03-20T20:57:44;100410.97;;;12.22;54.70
46291;BME280;32023;44.444;26.006;2023-03-20T21:00:10;100410.94;;;12.12;54.34
46291;BME280;32023;44.444;26.006;2023-03-20T21:02:43;100401.47;;;12.03;54.71
46291;BME280;32023;44.444;26.006;2023-03-20T21:05:14;100414.13;;;11.94;54.96
46291;BME280;32023;44.444;26.006;2023-03-20T21:07:42;100401.94;;;11.85;55.29
46291;BME280;32023;44.444;26.006;2023-03-20T21:10:33;100395.84;;;11.78;56.20
46291;BME280;32023;44.444;26.006;2023-03-20T21:12:59;100397.38;;;11.69;56.31
46291;BME280;32023;44.444;26.006;2023-03-20T21:15:57;100400.63;;;11.60;56.14
46291;BME280;32023;44.444;26.006;2023-03-20T21:21:22;100391.13;;;11.41;57.10
46291;BME280;32023;44.444;26.006;2023-03-20T21:23:51;100386.97;;;11.39;56.88
46291;BME280;32023;44.444;26.006;2023-03-20T21:26:17;100384.75;;;11.36;56.89
46291;BME280;32023;44.444;26.006;2023-03-20T21:28:51;100393.59;;;11.38;57.01
46291;BME280;32023;44.444;26.006;2023-03-20T21:31:29;100393.34;;;11.39;56.88
46291;BME280;32023;44.444;26.006;2023-03-20T21:34:15;100392.25;;;11.40;57.06
46291;BME280;32023;44.444;26.006;2023-03-20T21:36:47;100398.31;;;11.42;57.22
46291;BME280;32023;44.444;26.006;2023-03-20T21:39:18;100393.88;;;11.41;57.46
46291;BME280;32023;44.444;26.006;2023-03-20T21:41:47;100388.91;;;11.38;57.96
46291;BME280;32023;44.444;26.006;2023-03-20T21:44:26;100392.19;;;11.35;57.84
46291;BME280;32023;44.444;26.006;2023-03-20T21:46:53;100391.63;;;11.33;58.45
46291;BME280;32023;44.444;26.006;2023-03-20T21:49:23;100397.66;;;11.30;58.24
46291;BME280;32023;44.444;26.006;2023-03-20T21:51:59;100402.03;;;11.26;58.49
46291;BME280;32023;44.444;26.006;2023-03-20T21:54:42;100401.44;;;11.19;58.62
46291;BME280;32023;44.444;26.006;2023-03-20T21:57:14;100403.34;;;11.14;58.84
46291;BME280;32023;44.444;26.006;2023-03-20T21:59:43;100405.19;;;11.08;58.57
46291;BME280;32023;44.444;26.006;2023-03-20T22:02:12;100406.25;;;11.02;59.29
46291;BME280;32023;44.444;26.006;2023-03-20T22:04:43;100392.41;;;10.97;59.57
46291;BME280;32023;44.444;26.006;2023-03-20T22:09:39;100385.16;;;10.86;59.78
46291;BME280;32023;44.444;26.006;2023-03-20T22:12:08;100383.75;;;10.83;60.02
46291;BME280;32023;44.444;26.006;2023-03-20T22:14:34;100381.78;;;10.79;59.82
46291;BME280;32023;44.444;26.006;2023-03-20T22:17:09;100369.63;;;10.75;60.01
46291;BME280;32023;44.444;26.006;2023-03-20T22:19:36;100372.06;;;10.71;59.77
46291;BME280;32023;44.444;26.006;2023-03-20T22:22:02;100375.59;;;10.67;60.28
46291;BME280;32023;44.444;26.006;2023-03-20T22:24:30;100383.31;;;10.65;60.11
46291;BME280;32023;44.444;26.006;2023-03-20T22:27:01;100393.22;;;10.66;60.51
46291;BME280;32023;44.444;26.006;2023-03-20T22:29:36;100387.97;;;10.64;60.21
46291;BME280;32023;44.444;26.006;2023-03-20T22:32:24;100390.16;;;10.62;60.09
46291;BME280;32023;44.444;26.006;2023-03-20T22:34:50;100390.66;;;10.59;60.27
46291;BME280;32023;44.444;26.006;2023-03-20T22:37:17;100387.34;;;10.57;60.52
46291;BME280;32023;44.444;26.006;2023-03-20T22:39:43;100389.53;;;10.55;60.43
46291;BME280;32023;44.444;26.006;2023-03-20T22:42:10;100378.78;;;10.53;60.16
46291;BME280;32023;44.444;26.006;2023-03-20T22:44:37;100373.22;;;10.48;60.12
46291;BME280;32023;44.444;26.006;2023-03-20T22:47:04;100375.38;;;10.46;60.13
46291;BME280;32023;44.444;26.006;2023-03-20T22:49:36;100374.81;;;10.44;60.63
46291;BME280;32023;44.444;26.006;2023-03-20T22:52:03;100382.25;;;10.44;59.98
46291;BME280;32023;44.444;26.006;2023-03-20T22:54:32;100382.50;;;10.42;60.27
46291;BME280;32023;44.444;26.006;2023-03-20T22:56:58;100379.72;;;10.42;60.49
46291;BME280;32023;44.444;26.006;2023-03-20T22:59:27;100370.91;;;10.40;60.35
46291;BME280;32023;44.444;26.006;2023-03-20T23:01:56;100374.75;;;10.39;60.75
46291;BME280;32023;44.444;26.006;2023-03-20T23:04:24;100370.03;;;10.35;61.19
46291;BME280;32023;44.444;26.006;2023-03-20T23:06:53;100374.13;;;10.32;61.09
46291;BME280;32023;44.444;26.006;2023-03-20T23:09:20;100370.50;;;10.27;61.20
46291;BME280;32023;44.444;26.006;2023-03-20T23:11:46;100370.19;;;10.23;61.20
46291;BME280;32023;44.444;26.006;2023-03-20T23:14:15;100368.75;;;10.21;61.42
46291;BME280;32023;44.444;26.006;2023-03-20T23:16:50;100370.13;;;10.18;61.71
46291;BME280;32023;44.444;26.006;2023-03-20T23:19:17;100368.94;;;10.14;61.56
46291;BME280;32023;44.444;26.006;2023-03-20T23:21:46;100371.38;;;10.10;61.87
46291;BME280;32023;44.444;26.006;2023-03-20T23:24:13;100380.13;;;10.07;62.21
46291;BME280;32023;44.444;26.006;2023-03-20T23:26:42;100371.06;;;10.07;61.96
46291;BME280;32023;44.444;26.006;2023-03-20T23:29:11;100370.47;;;10.05;62.13
46291;BME280;32023;44.444;26.006;2023-03-20T23:31:37;100365.44;;;9.97;62.97
46291;BME280;32023;44.444;26.006;2023-03-20T23:34:07;100370.78;;;9.87;62.84
46291;BME280;32023;44.444;26.006;2023-03-20T23:36:34;100370.13;;;9.80;63.36
46291;BME280;32023;44.444;26.006;2023-03-20T23:39:00;100365.06;;;9.72;64.14
46291;BME280;32023;44.444;26.006;2023-03-20T23:41:27;100362.50;;;9.65;63.88
46291;BME280;32023;44.444;26.006;2023-03-20T23:43:53;100371.00;;;9.63;64.05
46291;BME280;32023;44.444;26.006;2023-03-20T23:46:23;100360.53;;;9.60;64.02
46291;BME280;32023;44.444;26.006;2023-03-20T23:48:49;100361.03;;;9.57;64.56
46291;BME280;32023;44.444;26.006;2023-03-20T23:51:16;100360.47;;;9.55;64.40
46291;BME280;32023;44.444;26.006;2023-03-20T23:53:42;100360.91;;;9.47;65.11
46291;BME280;32023;44.444;26.006;2023-03-20T23:56:09;100353.72;;;9.46;64.96
46291;BME280;32023;44.444;26.006;2023-03-20T23:58:36;100359.22;;;9.46;64.79
